sensor_id;sensor_type;location;lat;lon;timestamp;temperature;humidity
8892;DHT22;4482;54.332;10.118;2022-10-03T00:01:39;10.70;99.90
8892;DHT22;4482;54.332;10.118;2022-10-03T00:04:23;10.60;99.90
8892;DHT22;4482;54.332;10.118;2022-10-03T00:07:00;10.60;99.90
8892;DHT22;4482;54.332;10.118;2022-10-03T00:09:46;10.60;99.90
8892;DHT22;4482;54.332;10.118;2022-10-03T00:12:36;10.60;99.90
8892;DHT22;4482;54.332;10.118;2022-10-03T00:15:12;10.60;99.90
8892;DHT22;4482;54.332;10.118;2022-10-03T00:17:46;10.60;99.90
8892;DHT22;4482;54.332;10.118;2022-10-03T00:20:34;10.60;99.90
8892;DHT22;4482;54.332;10.118;2022-10-03T00:23:09;10.60;99.90
8892;DHT22;4482;54.332;10.118;2022-10-03T00:25:44;10.60;99.90
8892;DHT22;4482;54.332;10.118;2022-10-03T00:28:23;10.50;99.90
8892;DHT22;4482;54.332;10.118;2022-10-03T00:31:06;10.50;99.90
8892;DHT22;4482;54.332;10.118;2022-10-03T00:33:43;10.50;99.90
8892;DHT22;4482;54.332;10.118;2022-10-03T00:36:20;10.40;99.90
8892;DHT22;4482;54.332;10.118;2022-10-03T00:45:09;10.40;99.90
8892;DHT22;4482;54.332;10.118;2022-10-03T00:48:12;10.40;99.90
8892;DHT22;4482;54.332;10.118;2022-10-03T00:50:59;10.40;99.90
8892;DHT22;4482;54.332;10.118;2022-10-03T00:53:47;10.40;99.90
8892;DHT22;4482;54.332;10.118;2022-10-03T00:56:38;10.40;99.90
8892;DHT22;4482;54.332;10.118;2022-10-03T00:59:21;10.40;99.90
8892;DHT22;4482;54.332;10.118;2022-10-03T01:01:50;10.40;99.90
8892;DHT22;4482;54.332;10.118;2022-10-03T01:04:42;10.40;99.90
8892;DHT22;4482;54.332;10.118;2022-10-03T01:07:24;10.30;99.90
8892;DHT22;4482;54.332;10.118;2022-10-03T01:10:04;10.40;99.90
8892;DHT22;4482;54.332;10.118;2022-10-03T01:12:52;10.30;99.90
8892;DHT22;4482;54.332;10.118;2022-10-03T01:15:30;10.30;99.90
8892;DHT22;4482;54.332;10.118;2022-10-03T01:18:15;10.30;99.90
8892;DHT22;4482;54.332;10.118;2022-10-03T01:20:51;10.30;99.90
8892;DHT22;4482;54.332;10.118;2022-10-03T01:23:56;10.30;99.90
8892;DHT22;4482;54.332;10.118;2022-10-03T01:26:41;10.30;99.90
8892;DHT22;4482;54.332;10.118;2022-10-03T01:29:17;10.30;99.90
8892;DHT22;4482;54.332;10.118;2022-10-03T01:32:05;10.20;99.90
8892;DHT22;4482;54.332;10.118;2022-10-03T01:34:41;10.20;99.90
8892;DHT22;4482;54.332;10.118;2022-10-03T01:37:14;10.20;99.90
8892;DHT22;4482;54.332;10.118;2022-10-03T01:39:48;10.20;99.90
8892;DHT22;4482;54.332;10.118;2022-10-03T01:42:28;10.20;99.90
8892;DHT22;4482;54.332;10.118;2022-10-03T01:45:09;10.20;99.90
8892;DHT22;4482;54.332;10.118;2022-10-03T01:47:43;10.20;99.90
8892;DHT22;4482;54.332;10.118;2022-10-03T01:50:22;10.20;99.90
8892;DHT22;4482;54.332;10.118;2022-10-03T01:52:59;10.10;99.90
8892;DHT22;4482;54.332;10.118;2022-10-03T01:55:37;10.10;99.90
8892;DHT22;4482;54.332;10.118;2022-10-03T01:58:11;10.10;99.90
8892;DHT22;4482;54.332;10.118;2022-10-03T02:00:44;10.10;99.90
8892;DHT22;4482;54.332;10.118;2022-10-03T02:03:19;10.10;99.90
8892;DHT22;4482;54.332;10.118;2022-10-03T02:05:53;10.10;99.90
8892;DHT22;4482;54.332;10.118;2022-10-03T02:08:31;10.00;99.90
8892;DHT22;4482;54.332;10.118;2022-10-03T02:11:03;10.10;99.90
8892;DHT22;4482;54.332;10.118;2022-10-03T02:13:41;10.00;99.90
8892;DHT22;4482;54.332;10.118;2022-10-03T02:16:15;10.10;99.90
8892;DHT22;4482;54.332;10.118;2022-10-03T02:18:48;10.10;99.90
8892;DHT22;4482;54.332;10.118;2022-10-03T02:21:18;10.10;99.90
8892;DHT22;4482;54.332;10.118;2022-10-03T02:23:48;10.10;99.90
8892;DHT22;4482;54.332;10.118;2022-10-03T02:26:56;10.10;99.90
8892;DHT22;4482;54.332;10.118;2022-10-03T02:29:57;10.10;99.90
8892;DHT22;4482;54.332;10.118;2022-10-03T02:33:14;10.10;99.90
8892;DHT22;4482;54.332;10.118;2022-10-03T02:36:14;10.10;99.90
8892;DHT22;4482;54.332;10.118;2022-10-03T02:39:03;10.00;99.90
8892;DHT22;4482;54.332;10.118;2022-10-03T02:41:46;10.00;99.90
8892;DHT22;4482;54.332;10.118;2022-10-03T02:44:51;10.00;99.90
8892;DHT22;4482;54.332;10.118;2022-10-03T02:47:46;10.00;99.90
8892;DHT22;4482;54.332;10.118;2022-10-03T02:50:49;10.00;99.90
8892;DHT22;4482;54.332;10.118;2022-10-03T03:03:21;10.00;99.90
8892;DHT22;4482;54.332;10.118;2022-10-03T03:06:10;10.00;99.90
8892;DHT22;4482;54.332;10.118;2022-10-03T03:09:15;10.00;99.90
8892;DHT22;4482;54.332;10.118;2022-10-03T03:15:12;10.00;99.90
8892;DHT22;4482;54.332;10.118;2022-10-03T03:18:01;10.00;99.90
8892;DHT22;4482;54.332;10.118;2022-10-03T03:20:42;10.00;99.90
8892;DHT22;4482;54.332;10.118;2022-10-03T03:23:28;10.00;99.90
8892;DHT22;4482;54.332;10.118;2022-10-03T03:26:17;9.90;99.90
8892;DHT22;4482;54.332;10.118;2022-10-03T03:28:56;9.90;99.90
8892;DHT22;4482;54.332;10.118;2022-10-03T03:31:31;9.90;99.90
8892;DHT22;4482;54.332;10.118;2022-10-03T03:34:08;9.90;99.90
8892;DHT22;4482;54.332;10.118;2022-10-03T03:36:42;9.90;99.90
8892;DHT22;4482;54.332;10.118;2022-10-03T03:39:27;9.90;99.90
8892;DHT22;4482;54.332;10.118;2022-10-03T03:42:10;9.90;99.90
8892;DHT22;4482;54.332;10.118;2022-10-03T03:45:01;9.90;99.90
8892;DHT22;4482;54.332;10.118;2022-10-03T03:47:46;9.80;99.90
8892;DHT22;4482;54.332;10.118;2022-10-03T03:50:27;9.80;99.90
8892;DHT22;4482;54.332;10.118;2022-10-03T03:53:19;9.80;99.90
8892;DHT22;4482;54.332;10.118;2022-10-03T03:56:03;9.80;99.90
8892;DHT22;4482;54.332;10.118;2022-10-03T03:58:36;9.80;99.90
8892;DHT22;4482;54.332;10.118;2022-10-03T04:01:25;9.80;99.90
8892;DHT22;4482;54.332;10.118;2022-10-03T04:04:04;9.70;99.90
8892;DHT22;4482;54.332;10.118;2022-10-03T04:06:45;9.70;99.90
8892;DHT22;4482;54.332;10.118;2022-10-03T04:09:45;9.70;99.90
8892;DHT22;4482;54.332;10.118;2022-10-03T04:12:25;9.70;99.90
8892;DHT22;4482;54.332;10.118;2022-10-03T04:15:21;9.70;99.90
8892;DHT22;4482;54.332;10.118;2022-10-03T04:18:10;9.70;99.90
8892;DHT22;4482;54.332;10.118;2022-10-03T04:21:09;9.70;99.90
8892;DHT22;4482;54.332;10.118;2022-10-03T04:23:58;9.60;99.90
8892;DHT22;4482;54.332;10.118;2022-10-03T04:26:40;9.70;99.90
8892;DHT22;4482;54.332;10.118;2022-10-03T04:29:29;9.60;99.90
8892;DHT22;4482;54.332;10.118;2022-10-03T04:32:10;9.60;99.90
8892;DHT22;4482;54.332;10.118;2022-10-03T04:34:49;9.60;99.90
8892;DHT22;4482;54.332;10.118;2022-10-03T04:37:29;9.60;99.90
8892;DHT22;4482;54.332;10.118;2022-10-03T04:40:07;9.50;99.90
8892;DHT22;4482;54.332;10.118;2022-10-03T04:42:45;9.70;99.90
8892;DHT22;4482;54.332;10.118;2022-10-03T04:45:31;9.80;99.90
8892;DHT22;4482;54.332;10.118;2022-10-03T04:48:09;9.70;99.90
8892;DHT22;4482;54.332;10.118;2022-10-03T04:50:46;9.60;99.90
8892;DHT22;4482;54.332;10.118;2022-10-03T04:53:22;9.60;99.90
8892;DHT22;4482;54.332;10.118;2022-10-03T04:55:59;9.60;99.90
8892;DHT22;4482;54.332;10.118;2022-10-03T04:58:35;9.60;99.90
8892;DHT22;4482;54.332;10.118;2022-10-03T05:01:10;9.60;99.90
8892;DHT22;4482;54.332;10.118;2022-10-03T05:03:44;9.60;99.90
8892;DHT22;4482;54.332;10.118;2022-10-03T05:06:36;9.60;99.90
8892;DHT22;4482;54.332;10.118;2022-10-03T05:09:19;9.60;99.90
8892;DHT22;4482;54.332;10.118;2022-10-03T05:11:54;9.60;99.90
8892;DHT22;4482;54.332;10.118;2022-10-03T05:14:28;9.60;99.90
8892;DHT22;4482;54.332;10.118;2022-10-03T05:17:06;9.60;99.90
8892;DHT22;4482;54.332;10.118;2022-10-03T05:19:50;9.60;99.90
8892;DHT22;4482;54.332;10.118;2022-10-03T05:22:36;9.60;99.90
8892;DHT22;4482;54.332;10.118;2022-10-03T05:25:15;9.60;99.90
8892;DHT22;4482;54.332;10.118;2022-10-03T05:27:50;9.60;99.90
8892;DHT22;4482;54.332;10.118;2022-10-03T05:30:28;9.60;99.90
8892;DHT22;4482;54.332;10.118;2022-10-03T05:33:04;9.70;99.90
8892;DHT22;4482;54.332;10.118;2022-10-03T05:35:46;9.90;99.90
8892;DHT22;4482;54.332;10.118;2022-10-03T05:38:34;9.80;99.90
8892;DHT22;4482;54.332;10.118;2022-10-03T05:41:10;9.80;99.90
8892;DHT22;4482;54.332;10.118;2022-10-03T05:43:46;9.80;99.90
8892;DHT22;4482;54.332;10.118;2022-10-03T05:46:37;9.80;99.90
8892;DHT22;4482;54.332;10.118;2022-10-03T05:49:27;9.90;99.90
8892;DHT22;4482;54.332;10.118;2022-10-03T05:52:10;10.00;99.90
8892;DHT22;4482;54.332;10.118;2022-10-03T05:54:52;10.10;99.90
8892;DHT22;4482;54.332;10.118;2022-10-03T06:00:34;10.20;99.90
8892;DHT22;4482;54.332;10.118;2022-10-03T06:03:47;10.20;99.90
8892;DHT22;4482;54.332;10.118;2022-10-03T06:06:25;10.30;99.90
8892;DHT22;4482;54.332;10.118;2022-10-03T06:09:18;10.30;99.90
8892;DHT22;4482;54.332;10.118;2022-10-03T06:12:02;10.30;99.90
8892;DHT22;4482;54.332;10.118;2022-10-03T06:14:49;10.40;99.90
8892;DHT22;4482;54.332;10.118;2022-10-03T06:21:09;10.50;99.90
8892;DHT22;4482;54.332;10.118;2022-10-03T06:24:26;10.60;99.90
8892;DHT22;4482;54.332;10.118;2022-10-03T06:30:07;10.80;99.90
8892;DHT22;4482;54.332;10.118;2022-10-03T06:33:12;10.80;99.90
8892;DHT22;4482;54.332;10.118;2022-10-03T06:36:12;10.90;99.90
8892;DHT22;4482;54.332;10.118;2022-10-03T06:39:19;10.90;99.90
8892;DHT22;4482;54.332;10.118;2022-10-03T06:48:28;11.20;99.90
8892;DHT22;4482;54.332;10.118;2022-10-03T06:51:22;11.20;99.90
8892;DHT22;4482;54.332;10.118;2022-10-03T06:54:20;11.30;99.90
8892;DHT22;4482;54.332;10.118;2022-10-03T06:57:12;11.40;99.90
8892;DHT22;4482;54.332;10.118;2022-10-03T06:59:57;11.50;99.90
8892;DHT22;4482;54.332;10.118;2022-10-03T07:06:02;11.70;99.90
8892;DHT22;4482;54.332;10.118;2022-10-03T07:14:53;12.00;99.90
8892;DHT22;4482;54.332;10.118;2022-10-03T07:20:57;12.20;99.90
8892;DHT22;4482;54.332;10.118;2022-10-03T07:24:01;12.30;99.90
8892;DHT22;4482;54.332;10.118;2022-10-03T07:26:55;12.40;99.90
8892;DHT22;4482;54.332;10.118;2022-10-03T07:29:36;12.50;99.90
8892;DHT22;4482;54.332;10.118;2022-10-03T07:35:31;12.70;99.90
8892;DHT22;4482;54.332;10.118;2022-10-03T07:38:47;12.80;99.90
8892;DHT22;4482;54.332;10.118;2022-10-03T07:45:00;13.10;99.90
8892;DHT22;4482;54.332;10.118;2022-10-03T07:47:56;13.20;99.90
8892;DHT22;4482;54.332;10.118;2022-10-03T07:50:48;13.20;99.90
8892;DHT22;4482;54.332;10.118;2022-10-03T07:53:29;13.20;99.90
8892;DHT22;4482;54.332;10.118;2022-10-03T07:56:07;13.30;99.90
8892;DHT22;4482;54.332;10.118;2022-10-03T07:58:59;13.40;99.90
8892;DHT22;4482;54.332;10.118;2022-10-03T08:01:51;13.50;99.90
8892;DHT22;4482;54.332;10.118;2022-10-03T08:07:42;13.90;99.90
8892;DHT22;4482;54.332;10.118;2022-10-03T08:10:19;14.10;99.90
8892;DHT22;4482;54.332;10.118;2022-10-03T08:15:59;14.50;99.90
8892;DHT22;4482;54.332;10.118;2022-10-03T08:18:58;14.40;99.90
8892;DHT22;4482;54.332;10.118;2022-10-03T08:21:41;14.30;99.90
8892;DHT22;4482;54.332;10.118;2022-10-03T08:27:25;14.40;99.90
8892;DHT22;4482;54.332;10.118;2022-10-03T08:30:23;14.40;99.90
8892;DHT22;4482;54.332;10.118;2022-10-03T08:33:07;14.40;99.90
8892;DHT22;4482;54.332;10.118;2022-10-03T08:38:56;14.60;99.90
8892;DHT22;4482;54.332;10.118;2022-10-03T08:42:00;14.70;99.90
8892;DHT22;4482;54.332;10.118;2022-10-03T08:44:46;14.80;99.90
8892;DHT22;4482;54.332;10.118;2022-10-03T08:47:44;14.90;99.90
8892;DHT22;4482;54.332;10.118;2022-10-03T08:50:38;14.90;99.90
8892;DHT22;4482;54.332;10.118;2022-10-03T08:56:47;15.00;99.90
8892;DHT22;4482;54.332;10.118;2022-10-03T09:05:51;15.30;99.90
8892;DHT22;4482;54.332;10.118;2022-10-03T09:08:40;15.40;99.90
8892;DHT22;4482;54.332;10.118;2022-10-03T09:14:30;15.60;99.90
8892;DHT22;4482;54.332;10.118;2022-10-03T09:17:11;15.70;99.90
8892;DHT22;4482;54.332;10.118;2022-10-03T09:20:16;15.60;99.90
8892;DHT22;4482;54.332;10.118;2022-10-03T09:23:01;15.50;99.90
8892;DHT22;4482;54.332;10.118;2022-10-03T09:25:43;15.40;99.90
8892;DHT22;4482;54.332;10.118;2022-10-03T09:28:49;15.40;99.90
8892;DHT22;4482;54.332;10.118;2022-10-03T09:31:48;15.40;99.90
8892;DHT22;4482;54.332;10.118;2022-10-03T09:34:42;15.30;99.90
8892;DHT22;4482;54.332;10.118;2022-10-03T09:37:41;15.50;99.90
8892;DHT22;4482;54.332;10.118;2022-10-03T09:43:50;15.60;99.90
8892;DHT22;4482;54.332;10.118;2022-10-03T09:50:29;15.60;99.90
8892;DHT22;4482;54.332;10.118;2022-10-03T09:53:27;15.80;99.90
8892;DHT22;4482;54.332;10.118;2022-10-03T09:56:27;15.80;99.90
8892;DHT22;4482;54.332;10.118;2022-10-03T09:59:18;15.90;99.90
8892;DHT22;4482;54.332;10.118;2022-10-03T10:01:55;16.20;99.90
8892;DHT22;4482;54.332;10.118;2022-10-03T10:04:44;16.50;99.90
8892;DHT22;4482;54.332;10.118;2022-10-03T10:08:03;16.70;99.90
8892;DHT22;4482;54.332;10.118;2022-10-03T10:10:56;16.80;99.90
8892;DHT22;4482;54.332;10.118;2022-10-03T10:16:43;16.80;99.90
8892;DHT22;4482;54.332;10.118;2022-10-03T10:19:25;16.80;99.90
8892;DHT22;4482;54.332;10.118;2022-10-03T10:22:36;16.70;99.90
8892;DHT22;4482;54.332;10.118;2022-10-03T10:37:45;16.10;99.90
8892;DHT22;4482;54.332;10.118;2022-10-03T10:43:46;16.50;99.90
8892;DHT22;4482;54.332;10.118;2022-10-03T11:02:04;16.20;99.90
8892;DHT22;4482;54.332;10.118;2022-10-03T11:05:19;16.10;99.90
8892;DHT22;4482;54.332;10.118;2022-10-03T11:17:43;16.70;99.90
8892;DHT22;4482;54.332;10.118;2022-10-03T11:26:39;16.90;99.90
8892;DHT22;4482;54.332;10.118;2022-10-03T11:35:50;16.00;99.90
8892;DHT22;4482;54.332;10.118;2022-10-03T11:38:27;15.90;99.90
8892;DHT22;4482;54.332;10.118;2022-10-03T11:41:00;15.80;99.90
8892;DHT22;4482;54.332;10.118;2022-10-03T11:43:50;15.70;99.90
8892;DHT22;4482;54.332;10.118;2022-10-03T11:46:52;15.70;99.90
8892;DHT22;4482;54.332;10.118;2022-10-03T11:49:37;15.70;99.90
8892;DHT22;4482;54.332;10.118;2022-10-03T11:52:24;15.70;99.90
8892;DHT22;4482;54.332;10.118;2022-10-03T11:55:04;15.80;99.90
8892;DHT22;4482;54.332;10.118;2022-10-03T11:57:34;15.90;99.90
8892;DHT22;4482;54.332;10.118;2022-10-03T12:00:04;16.10;99.90
8892;DHT22;4482;54.332;10.118;2022-10-03T12:05:37;16.40;99.90
8892;DHT22;4482;54.332;10.118;2022-10-03T12:08:18;16.60;99.90
8892;DHT22;4482;54.332;10.118;2022-10-03T12:11:09;16.70;99.90
8892;DHT22;4482;54.332;10.118;2022-10-03T12:13:45;16.60;99.90
8892;DHT22;4482;54.332;10.118;2022-10-03T12:16:19;16.40;99.90
8892;DHT22;4482;54.332;10.118;2022-10-03T12:18:57;16.40;99.90
8892;DHT22;4482;54.332;10.118;2022-10-03T12:21:38;16.30;99.90
8892;DHT22;4482;54.332;10.118;2022-10-03T12:24:22;16.30;99.90
8892;DHT22;4482;54.332;10.118;2022-10-03T12:26:54;16.30;99.90
8892;DHT22;4482;54.332;10.118;2022-10-03T12:29:25;16.30;99.90
8892;DHT22;4482;54.332;10.118;2022-10-03T12:32:06;16.20;99.90
8892;DHT22;4482;54.332;10.118;2022-10-03T12:34:41;16.10;99.90
8892;DHT22;4482;54.332;10.118;2022-10-03T12:40:16;16.10;99.90
8892;DHT22;4482;54.332;10.118;2022-10-03T12:42:59;16.10;99.90
8892;DHT22;4482;54.332;10.118;2022-10-03T12:45:32;16.20;99.90
8892;DHT22;4482;54.332;10.118;2022-10-03T12:48:14;16.20;99.90
8892;DHT22;4482;54.332;10.118;2022-10-03T12:50:48;16.40;99.90
8892;DHT22;4482;54.332;10.118;2022-10-03T12:53:30;16.50;99.90
8892;DHT22;4482;54.332;10.118;2022-10-03T12:56:24;16.50;99.90
8892;DHT22;4482;54.332;10.118;2022-10-03T12:59:14;16.50;99.90
8892;DHT22;4482;54.332;10.118;2022-10-03T13:01:57;16.40;99.90
8892;DHT22;4482;54.332;10.118;2022-10-03T13:04:36;16.40;99.90
8892;DHT22;4482;54.332;10.118;2022-10-03T13:07:29;16.40;99.90
8892;DHT22;4482;54.332;10.118;2022-10-03T13:10:15;16.30;99.90
8892;DHT22;4482;54.332;10.118;2022-10-03T13:12:51;16.30;99.90
8892;DHT22;4482;54.332;10.118;2022-10-03T13:18:47;16.50;99.90
8892;DHT22;4482;54.332;10.118;2022-10-03T13:21:20;16.70;99.90
8892;DHT22;4482;54.332;10.118;2022-10-03T13:23:54;16.70;99.90
8892;DHT22;4482;54.332;10.118;2022-10-03T13:26:26;16.70;99.90
8892;DHT22;4482;54.332;10.118;2022-10-03T13:29:12;16.60;99.90
8892;DHT22;4482;54.332;10.118;2022-10-03T13:31:54;16.30;99.90
8892;DHT22;4482;54.332;10.118;2022-10-03T13:34:25;16.10;99.90
8892;DHT22;4482;54.332;10.118;2022-10-03T13:36:56;16.10;99.90
8892;DHT22;4482;54.332;10.118;2022-10-03T13:39:27;16.10;99.90
8892;DHT22;4482;54.332;10.118;2022-10-03T13:42:10;16.10;99.90
8892;DHT22;4482;54.332;10.118;2022-10-03T13:44:41;16.10;99.90
8892;DHT22;4482;54.332;10.118;2022-10-03T13:47:22;16.20;99.90
8892;DHT22;4482;54.332;10.118;2022-10-03T13:49:53;16.20;99.90
8892;DHT22;4482;54.332;10.118;2022-10-03T13:52:27;16.30;99.90
8892;DHT22;4482;54.332;10.118;2022-10-03T13:55:17;16.40;99.90
8892;DHT22;4482;54.332;10.118;2022-10-03T13:58:01;16.50;99.90
8892;DHT22;4482;54.332;10.118;2022-10-03T14:00:43;16.60;99.90
8892;DHT22;4482;54.332;10.118;2022-10-03T14:03:22;16.50;99.90
8892;DHT22;4482;54.332;10.118;2022-10-03T14:06:13;16.50;99.90
8892;DHT22;4482;54.332;10.118;2022-10-03T14:09:11;16.50;99.90
8892;DHT22;4482;54.332;10.118;2022-10-03T14:11:46;16.50;99.90
8892;DHT22;4482;54.332;10.118;2022-10-03T14:14:39;16.50;99.90
8892;DHT22;4482;54.332;10.118;2022-10-03T14:17:15;16.40;99.90
8892;DHT22;4482;54.332;10.118;2022-10-03T14:19:55;16.30;99.90
8892;DHT22;4482;54.332;10.118;2022-10-03T14:22:32;16.20;99.90
8892;DHT22;4482;54.332;10.118;2022-10-03T14:25:17;16.10;99.90
8892;DHT22;4482;54.332;10.118;2022-10-03T14:27:50;15.90;99.90
8892;DHT22;4482;54.332;10.118;2022-10-03T14:30:19;15.80;99.90
8892;DHT22;4482;54.332;10.118;2022-10-03T14:32:55;15.80;99.90
8892;DHT22;4482;54.332;10.118;2022-10-03T14:35:34;15.80;99.90
8892;DHT22;4482;54.332;10.118;2022-10-03T14:38:14;15.90;99.90
8892;DHT22;4482;54.332;10.118;2022-10-03T14:40:47;15.90;99.90
8892;DHT22;4482;54.332;10.118;2022-10-03T14:43:31;15.90;99.90
8892;DHT22;4482;54.332;10.118;2022-10-03T14:46:00;15.90;99.90
8892;DHT22;4482;54.332;10.118;2022-10-03T14:48:33;16.00;99.90
8892;DHT22;4482;54.332;10.118;2022-10-03T14:51:08;16.00;99.90
8892;DHT22;4482;54.332;10.118;2022-10-03T14:53:36;15.90;99.90
8892;DHT22;4482;54.332;10.118;2022-10-03T14:56:06;15.90;99.90
8892;DHT22;4482;54.332;10.118;2022-10-03T14:58:37;15.90;99.90
8892;DHT22;4482;54.332;10.118;2022-10-03T15:01:13;15.80;99.90
8892;DHT22;4482;54.332;10.118;2022-10-03T15:03:53;15.80;99.90
8892;DHT22;4482;54.332;10.118;2022-10-03T15:09:41;15.70;99.90
8892;DHT22;4482;54.332;10.118;2022-10-03T15:12:12;15.80;99.90
8892;DHT22;4482;54.332;10.118;2022-10-03T15:14:45;15.80;99.90
8892;DHT22;4482;54.332;10.118;2022-10-03T15:17:17;15.80;99.90
8892;DHT22;4482;54.332;10.118;2022-10-03T15:19:52;15.70;99.90
8892;DHT22;4482;54.332;10.118;2022-10-03T15:22:26;15.70;99.90
8892;DHT22;4482;54.332;10.118;2022-10-03T15:25:00;15.60;99.90
8892;DHT22;4482;54.332;10.118;2022-10-03T15:27:29;15.60;99.90
8892;DHT22;4482;54.332;10.118;2022-10-03T15:29:58;15.60;99.90
8892;DHT22;4482;54.332;10.118;2022-10-03T15:32:29;15.50;99.90
8892;DHT22;4482;54.332;10.118;2022-10-03T15:35:00;15.50;99.90
8892;DHT22;4482;54.332;10.118;2022-10-03T15:37:31;15.50;99.90
8892;DHT22;4482;54.332;10.118;2022-10-03T15:40:05;15.40;99.90
8892;DHT22;4482;54.332;10.118;2022-10-03T15:42:44;15.40;99.90
8892;DHT22;4482;54.332;10.118;2022-10-03T15:45:18;15.30;99.90
8892;DHT22;4482;54.332;10.118;2022-10-03T15:47:49;15.30;99.90
8892;DHT22;4482;54.332;10.118;2022-10-03T15:50:20;15.30;99.90
8892;DHT22;4482;54.332;10.118;2022-10-03T15:52:51;15.30;99.90
8892;DHT22;4482;54.332;10.118;2022-10-03T15:55:22;15.20;99.90
8892;DHT22;4482;54.332;10.118;2022-10-03T15:57:53;15.20;99.90
8892;DHT22;4482;54.332;10.118;2022-10-03T16:00:27;15.10;99.90
8892;DHT22;4482;54.332;10.118;2022-10-03T16:03:04;15.00;99.90
8892;DHT22;4482;54.332;10.118;2022-10-03T16:05:35;15.00;99.90
8892;DHT22;4482;54.332;10.118;2022-10-03T16:08:10;14.90;99.90
8892;DHT22;4482;54.332;10.118;2022-10-03T16:10:44;14.80;99.90
8892;DHT22;4482;54.332;10.118;2022-10-03T16:13:23;14.70;99.90
8892;DHT22;4482;54.332;10.118;2022-10-03T16:16:05;14.70;99.90
8892;DHT22;4482;54.332;10.118;2022-10-03T16:18:43;14.60;99.90
8892;DHT22;4482;54.332;10.118;2022-10-03T16:21:18;14.50;99.90
8892;DHT22;4482;54.332;10.118;2022-10-03T16:23:49;14.50;99.90
8892;DHT22;4482;54.332;10.118;2022-10-03T16:26:22;14.40;99.90
8892;DHT22;4482;54.332;10.118;2022-10-03T16:28:54;14.30;99.90
8892;DHT22;4482;54.332;10.118;2022-10-03T16:31:24;14.30;99.90
8892;DHT22;4482;54.332;10.118;2022-10-03T16:33:56;14.20;99.90
8892;DHT22;4482;54.332;10.118;2022-10-03T16:36:26;14.20;99.90
8892;DHT22;4482;54.332;10.118;2022-10-03T16:38:55;14.10;99.90
8892;DHT22;4482;54.332;10.118;2022-10-03T16:41:26;14.10;99.90
8892;DHT22;4482;54.332;10.118;2022-10-03T16:43:57;14.00;99.90
8892;DHT22;4482;54.332;10.118;2022-10-03T16:46:26;14.00;99.90
8892;DHT22;4482;54.332;10.118;2022-10-03T16:48:56;13.90;99.90
8892;DHT22;4482;54.332;10.118;2022-10-03T16:51:45;13.90;99.90
8892;DHT22;4482;54.332;10.118;2022-10-03T16:54:14;13.80;99.90
8892;DHT22;4482;54.332;10.118;2022-10-03T16:56:44;13.80;99.90
8892;DHT22;4482;54.332;10.118;2022-10-03T16:59:16;13.70;99.90
8892;DHT22;4482;54.332;10.118;2022-10-03T17:01:48;13.70;99.90
8892;DHT22;4482;54.332;10.118;2022-10-03T17:04:20;13.70;99.90
8892;DHT22;4482;54.332;10.118;2022-10-03T17:06:50;13.70;99.90
8892;DHT22;4482;54.332;10.118;2022-10-03T17:09:22;13.60;99.90
8892;DHT22;4482;54.332;10.118;2022-10-03T17:11:52;13.60;99.90
8892;DHT22;4482;54.332;10.118;2022-10-03T17:14:21;13.50;99.90
8892;DHT22;4482;54.332;10.118;2022-10-03T17:16:54;13.50;99.90
8892;DHT22;4482;54.332;10.118;2022-10-03T17:19:31;13.50;99.90
8892;DHT22;4482;54.332;10.118;2022-10-03T17:22:06;13.40;99.90
8892;DHT22;4482;54.332;10.118;2022-10-03T17:24:42;13.40;99.90
8892;DHT22;4482;54.332;10.118;2022-10-03T17:27:17;13.40;99.90
8892;DHT22;4482;54.332;10.118;2022-10-03T17:29:48;13.40;99.90
8892;DHT22;4482;54.332;10.118;2022-10-03T17:32:21;13.30;99.90
8892;DHT22;4482;54.332;10.118;2022-10-03T17:34:53;13.30;99.90
8892;DHT22;4482;54.332;10.118;2022-10-03T17:38:01;13.30;99.90
8892;DHT22;4482;54.332;10.118;2022-10-03T17:40:49;13.30;99.90
8892;DHT22;4482;54.332;10.118;2022-10-03T17:43:29;13.20;99.90
8892;DHT22;4482;54.332;10.118;2022-10-03T17:46:04;13.20;99.90
8892;DHT22;4482;54.332;10.118;2022-10-03T17:48:38;13.20;99.90
8892;DHT22;4482;54.332;10.118;2022-10-03T17:51:26;13.20;99.90
8892;DHT22;4482;54.332;10.118;2022-10-03T17:53:57;13.10;99.90
8892;DHT22;4482;54.332;10.118;2022-10-03T17:56:26;13.10;99.90
8892;DHT22;4482;54.332;10.118;2022-10-03T17:59:01;13.10;99.90
8892;DHT22;4482;54.332;10.118;2022-10-03T18:01:34;13.10;99.90
8892;DHT22;4482;54.332;10.118;2022-10-03T18:04:05;13.00;99.90
8892;DHT22;4482;54.332;10.118;2022-10-03T18:06:48;13.00;99.90
8892;DHT22;4482;54.332;10.118;2022-10-03T18:09:29;13.00;99.90
8892;DHT22;4482;54.332;10.118;2022-10-03T18:12:07;12.90;99.90
8892;DHT22;4482;54.332;10.118;2022-10-03T18:14:44;12.90;99.90
8892;DHT22;4482;54.332;10.118;2022-10-03T18:17:15;12.90;99.90
8892;DHT22;4482;54.332;10.118;2022-10-03T18:20:09;12.90;99.90
8892;DHT22;4482;54.332;10.118;2022-10-03T18:22:44;12.90;99.90
8892;DHT22;4482;54.332;10.118;2022-10-03T18:25:20;12.80;99.90
8892;DHT22;4482;54.332;10.118;2022-10-03T18:28:14;12.80;99.90
8892;DHT22;4482;54.332;10.118;2022-10-03T18:30:45;12.70;99.90
8892;DHT22;4482;54.332;10.118;2022-10-03T18:33:17;12.70;99.90
8892;DHT22;4482;54.332;10.118;2022-10-03T18:35:46;12.70;99.90
8892;DHT22;4482;54.332;10.118;2022-10-03T18:38:18;12.70;99.90
8892;DHT22;4482;54.332;10.118;2022-10-03T18:40:51;12.70;99.90
8892;DHT22;4482;54.332;10.118;2022-10-03T18:43:35;12.70;99.90
8892;DHT22;4482;54.332;10.118;2022-10-03T18:46:13;12.70;99.90
8892;DHT22;4482;54.332;10.118;2022-10-03T18:48:57;12.60;99.90
8892;DHT22;4482;54.332;10.118;2022-10-03T18:51:30;12.60;99.90
8892;DHT22;4482;54.332;10.118;2022-10-03T18:54:00;12.60;99.90
8892;DHT22;4482;54.332;10.118;2022-10-03T18:56:30;12.50;99.90
8892;DHT22;4482;54.332;10.118;2022-10-03T18:59:09;12.50;99.90
8892;DHT22;4482;54.332;10.118;2022-10-03T19:01:44;12.50;99.90
8892;DHT22;4482;54.332;10.118;2022-10-03T19:04:19;12.50;99.90
8892;DHT22;4482;54.332;10.118;2022-10-03T19:06:50;12.40;99.90
8892;DHT22;4482;54.332;10.118;2022-10-03T19:09:21;12.40;99.90
8892;DHT22;4482;54.332;10.118;2022-10-03T19:11:55;12.40;99.90
8892;DHT22;4482;54.332;10.118;2022-10-03T19:14:30;12.40;99.90
8892;DHT22;4482;54.332;10.118;2022-10-03T19:17:13;12.30;99.90
8892;DHT22;4482;54.332;10.118;2022-10-03T19:19:49;12.30;99.90
8892;DHT22;4482;54.332;10.118;2022-10-03T19:22:24;12.30;99.90
8892;DHT22;4482;54.332;10.118;2022-10-03T19:24:52;12.30;99.90
8892;DHT22;4482;54.332;10.118;2022-10-03T19:27:38;12.20;99.90
8892;DHT22;4482;54.332;10.118;2022-10-03T19:30:07;12.20;99.90
8892;DHT22;4482;54.332;10.118;2022-10-03T19:32:46;12.20;99.90
8892;DHT22;4482;54.332;10.118;2022-10-03T19:35:15;12.20;99.90
8892;DHT22;4482;54.332;10.118;2022-10-03T19:37:47;12.20;99.90
8892;DHT22;4482;54.332;10.118;2022-10-03T19:40:29;12.20;99.90
8892;DHT22;4482;54.332;10.118;2022-10-03T19:43:15;12.20;99.90
8892;DHT22;4482;54.332;10.118;2022-10-03T19:45:46;12.10;99.90
8892;DHT22;4482;54.332;10.118;2022-10-03T19:48:15;12.10;99.90
8892;DHT22;4482;54.332;10.118;2022-10-03T19:50:43;12.10;99.90
8892;DHT22;4482;54.332;10.118;2022-10-03T19:53:13;12.10;99.90